Time;durP1;ratioP1;P1;durP2;ratioP2;P2;SDS_P1;SDS_P2;PMS_P1;PMS_P2;Temp;Humidity;BMP_temperature;BMP_pressure;BME280_temperature;BME280_humidity;BME280_pressure;Samples;Min_cycle;Max_cycle;Signal;HPM_P1;HPM_P2
2021/01/21 00:00:28;;;;;;;2.15;1.60;;;6.70;99.90;;;;;;4972560;28;20225;-60
2021/01/21 00:02:55;;;;;;;4.78;1.77;;;6.70;99.90;;;;;;4972429;28;20255;-59
2021/01/21 00:05:22;;;;;;;2.78;1.77;;;6.70;99.90;;;;;;4972569;28;20180;-57
2021/01/21 00:07:49;;;;;;;3.60;1.42;;;6.70;99.90;;;;;;4972648;28;20191;-58
2021/01/21 00:10:16;;;;;;;5.20;3.55;;;6.90;99.90;;;;;;4972654;28;20219;-59
2021/01/21 00:12:44;;;;;;;3.60;2.85;;;6.90;99.90;;;;;;4972362;28;20187;-59
2021/01/21 00:15:12;;;;;;;125.45;75.22;;;7.00;99.90;;;;;;4972896;28;20214;-57
2021/01/21 00:17:39;;;;;;;7.22;4.78;;;7.00;99.90;;;;;;4973300;28;20195;-58
2021/01/21 00:20:08;;;;;;;102.13;50.55;;;7.00;99.90;;;;;;4973384;28;20215;-61
2021/01/21 00:22:36;;;;;;;20.23;12.30;;;6.90;99.90;;;;;;4973624;28;20710;-60
2021/01/21 00:25:04;;;;;;;17.40;9.77;;;6.80;99.90;;;;;;4973659;28;20187;-56
2021/01/21 00:27:32;;;;;;;8.95;6.05;;;6.70;99.90;;;;;;4973994;28;20187;-57
2021/01/21 00:30:01;;;;;;;75.85;40.78;;;6.60;99.90;;;;;;4973665;28;20246;-60
2021/01/21 00:32:28;;;;;;;10.02;5.30;;;6.50;99.90;;;;;;4973246;28;20219;-58
2021/01/21 00:34:55;;;;;;;7.63;4.93;;;6.40;99.90;;;;;;4973287;28;20206;-60
2021/01/21 00:37:22;;;;;;;6.90;3.00;;;6.20;99.90;;;;;;4973240;28;20222;-61
2021/01/21 00:39:49;;;;;;;3.08;1.77;;;6.10;99.90;;;;;;4973079;28;20266;-58
2021/01/21 00:42:16;;;;;;;2.03;1.83;;;6.00;99.90;;;;;;4972059;28;20199;-61
2021/01/21 00:44:43;;;;;;;2.30;1.63;;;5.90;99.90;;;;;;4972281;28;20191;-60
2021/01/21 00:47:11;;;;;;;3.85;2.40;;;5.90;99.90;;;;;;4972373;28;20195;-58
2021/01/21 00:49:39;;;;;;;9.55;2.45;;;5.80;99.90;;;;;;4972531;28;20187;-60
2021/01/21 00:52:06;;;;;;;2.92;1.88;;;5.80;99.90;;;;;;4972185;28;20200;-60
2021/01/21 00:54:34;;;;;;;2.90;1.50;;;5.80;99.90;;;;;;4971753;28;20595;-59
2021/01/21 00:57:01;;;;;;;1.48;1.38;;;5.80;99.90;;;;;;4971969;28;20226;-59
2021/01/21 00:59:28;;;;;;;7.70;3.55;;;5.80;99.90;;;;;;4971732;28;20281;-59
2021/01/21 01:01:55;;;;;;;3.15;1.35;;;5.80;99.90;;;;;;4972420;28;20215;-58
2021/01/21 01:04:24;;;;;;;2.75;2.10;;;5.80;99.90;;;;;;4987585;28;20223;-59
2021/01/21 01:06:53;;;;;;;4.43;4.03;;;5.80;99.90;;;;;;4971562;28;20233;-59
2021/01/21 01:09:20;;;;;;;2.78;2.58;;;5.70;99.90;;;;;;4973510;28;20192;-59
2021/01/21 01:11:48;;;;;;;7.65;3.75;;;5.70;99.90;;;;;;4971839;28;20219;-57
2021/01/21 01:14:16;;;;;;;3.20;2.08;;;5.80;99.90;;;;;;4971163;28;20270;-54
2021/01/21 01:16:43;;;;;;;4.00;2.13;;;5.80;99.90;;;;;;4987675;28;20195;-57
2021/01/21 01:19:10;;;;;;;2.40;1.70;;;5.90;99.90;;;;;;4987731;28;20188;-56
2021/01/21 01:21:40;;;;;;;2.45;2.22;;;6.00;99.90;;;;;;4971388;28;20215;-57
2021/01/21 01:24:08;;;;;;;3.47;1.77;;;6.00;99.90;;;;;;4972905;28;20192;-54
2021/01/21 01:26:40;;;;;;;1.77;1.23;;;6.10;99.90;;;;;;4971751;28;20215;-59
2021/01/21 01:29:16;;;;;;;3.92;1.70;;;6.10;99.90;;;;;;4973092;28;20225;-58
2021/01/21 01:31:45;;;;;;;1.50;1.38;;;6.10;99.90;;;;;;4971299;28;20219;-59
2021/01/21 01:34:13;;;;;;;5.00;1.38;;;6.10;99.90;;;;;;4972351;28;20282;-61
2021/01/21 01:36:59;;;;;;;1.30;0.85;;;6.10;99.90;;;;;;4977190;28;20187;-58
2021/01/21 01:39:31;;;;;;;3.25;1.38;;;6.20;99.90;;;;;;4974928;28;20198;-58
2021/01/21 01:42:10;;;;;;;3.78;1.80;;;6.20;99.90;;;;;;4977376;28;20238;-59
2021/01/21 01:44:42;;;;;;;1.63;0.80;;;6.20;99.90;;;;;;4977946;28;20222;-60
2021/01/21 01:47:10;;;;;;;2.55;1.42;;;6.30;99.90;;;;;;4992185;28;20684;-60
2021/01/21 01:49:39;;;;;;;1.00;0.80;;;6.30;99.90;;;;;;4976044;28;20269;-59
2021/01/21 01:52:07;;;;;;;6.32;1.05;;;6.30;99.90;;;;;;4974571;28;20298;-59
2021/01/21 01:54:35;;;;;;;4.30;1.65;;;6.30;99.90;;;;;;4975474;28;20211;-58
2021/01/21 01:57:22;;;;;;;3.03;1.80;;;6.30;99.90;;;;;;4974287;28;20202;-58
2021/01/21 01:59:58;;;;;;;2.58;1.60;;;6.30;99.90;;;;;;4974517;28;20681;-60
2021/01/21 02:02:27;;;;;;;1.63;1.20;;;6.30;99.90;;;;;;4974157;28;20325;-60
2021/01/21 02:05:01;;;;;;;4.22;1.42;;;6.30;99.90;;;;;;4976368;28;20624;-60
2021/01/21 02:07:33;;;;;;;1.92;1.10;;;6.30;99.90;;;;;;4976841;28;20295;-60
2021/01/21 02:10:11;;;;;;;2.92;1.30;;;6.30;99.90;;;;;;4978666;28;20294;-57
2021/01/21 02:13:26;;;;;;;1.55;1.45;;;6.30;99.90;;;;;;4975668;28;20609;-57
2021/01/21 02:16:13;;;;;;;2.08;1.17;;;6.30;99.90;;;;;;4976414;28;20212;-59
2021/01/21 02:18:43;;;;;;;1.17;0.85;;;6.30;99.90;;;;;;4977586;28;20187;-56
2021/01/21 02:21:45;;;;;;;4.05;1.85;;;6.30;99.90;;;;;;4977462;28;20226;-59
2021/01/21 02:24:55;;;;;;;7.43;1.85;;;6.30;99.90;;;;;;4969180;28;20218;-58
2021/01/21 02:27:27;;;;;;;1.00;0.88;;;6.40;99.90;;;;;;4974591;28;20251;-58
2021/01/21 02:29:56;;;;;;;3.30;2.20;;;6.40;99.90;;;;;;4974698;28;20192;-58
2021/01/21 02:32:53;;;;;;;1.70;1.13;;;6.40;99.90;;;;;;4975039;28;20257;-57
2021/01/21 02:35:26;;;;;;;1.83;0.90;;;6.60;99.90;;;;;;4974633;28;20207;-57
2021/01/21 02:37:55;;;;;;;2.03;1.83;;;6.70;99.90;;;;;;4975714;28;20194;-59
2021/01/21 02:40:26;;;;;;;9.40;1.70;;;6.70;99.90;;;;;;4974535;28;20221;-58
2021/01/21 02:43:15;;;;;;;0.90;0.80;;;6.80;99.90;;;;;;4973808;28;20202;-58
2021/01/21 02:45:48;;;;;;;4.03;1.35;;;6.80;99.90;;;;;;4975103;28;20187;-60
2021/01/21 02:48:15;;;;;;;1.40;1.20;;;6.90;99.90;;;;;;4975380;28;20184;-56
2021/01/21 02:51:09;;;;;;;2.50;1.40;;;7.00;99.90;;;;;;4989602;28;20259;-56
2021/01/21 02:53:40;;;;;;;5.07;1.95;;;7.10;99.90;;;;;;4975623;28;20182;-58
2021/01/21 02:56:14;;;;;;;1.90;1.23;;;7.10;99.90;;;;;;4975218;28;20211;-58
2021/01/21 02:58:55;;;;;;;3.95;1.38;;;7.10;99.90;;;;;;4975609;28;20199;-60
2021/01/21 03:01:23;;;;;;;2.65;1.15;;;7.10;99.90;;;;;;4974606;28;20266;-59
2021/01/21 03:03:59;;;;;;;3.50;1.42;;;7.00;99.90;;;;;;4974273;28;20641;-61
2021/01/21 03:06:29;;;;;;;1.30;0.90;;;7.00;99.90;;;;;;4975573;28;20602;-61
2021/01/21 03:08:59;;;;;;;1.08;0.98;;;6.90;99.90;;;;;;4974493;28;20636;-60
2021/01/21 03:11:29;;;;;;;0.95;0.80;;;7.00;99.90;;;;;;4974476;28;20215;-58
2021/01/21 03:14:00;;;;;;;1.85;1.55;;;6.90;99.90;;;;;;4975402;28;20172;-56
2021/01/21 03:16:32;;;;;;;3.63;1.08;;;7.00;99.90;;;;;;4974326;28;20215;-59
2021/01/21 03:19:00;;;;;;;1.45;1.23;;;7.00;99.90;;;;;;4975014;28;20180;-59
2021/01/21 03:21:28;;;;;;;4.35;1.25;;;6.90;99.90;;;;;;4974154;28;20219;-59
2021/01/21 03:24:00;;;;;;;2.75;1.05;;;6.90;99.90;;;;;;4973976;28;20223;-58
2021/01/21 03:26:42;;;;;;;2.00;1.00;;;6.90;99.90;;;;;;4974676;28;20209;-60
2021/01/21 03:29:15;;;;;;;1.30;1.20;;;6.90;99.90;;;;;;4974558;28;20286;-56
2021/01/21 03:31:42;;;;;;;1.00;0.60;;;7.00;99.90;;;;;;4974104;28;20293;-59
2021/01/21 03:34:11;;;;;;;1.70;1.10;;;7.00;99.90;;;;;;4974335;28;20196;-58
2021/01/21 03:36:45;;;;;;;2.13;0.80;;;7.00;99.90;;;;;;4975421;28;20500;-60
2021/01/21 03:39:12;;;;;;;1.20;0.90;;;6.90;99.90;;;;;;4976132;28;20720;-58
2021/01/21 03:41:56;;;;;;;1.42;1.10;;;6.90;99.90;;;;;;4976487;28;20226;-59
2021/01/21 03:44:41;;;;;;;1.73;1.30;;;6.90;99.90;;;;;;4976961;28;20278;-61
2021/01/21 03:47:09;;;;;;;1.98;1.00;;;6.80;99.90;;;;;;5064033;22;20324;-58
2021/01/21 03:49:47;;;;;;;2.08;1.00;;;6.80;99.90;;;;;;5051633;28;20296;-60
2021/01/21 03:52:19;;;;;;;1.10;0.90;;;6.90;99.90;;;;;;5033684;28;20197;-62
2021/01/21 03:55:03;;;;;;;1.30;1.20;;;6.90;99.90;;;;;;5031880;28;20217;-62
2021/01/21 03:57:31;;;;;;;1.05;0.80;;;6.90;99.90;;;;;;5015749;28;20600;-57
2021/01/21 04:00:15;;;;;;;1.52;0.90;;;6.90;99.90;;;;;;5015558;28;20287;-62
2021/01/21 04:02:44;;;;;;;1.70;1.00;;;6.90;99.90;;;;;;5033047;28;20192;-60
2021/01/21 04:05:26;;;;;;;2.15;1.60;;;6.90;99.90;;;;;;5015953;28;20193;-59
2021/01/21 04:07:55;;;;;;;1.10;0.93;;;6.90;99.90;;;;;;5016411;28;20189;-60
2021/01/21 04:10:23;;;;;;;1.00;0.80;;;6.90;99.90;;;;;;5016224;28;20221;-60
2021/01/21 04:13:06;;;;;;;1.50;1.40;;;6.90;99.90;;;;;;5031402;28;20197;-55
2021/01/21 04:15:35;;;;;;;1.23;0.80;;;7.00;99.90;;;;;;5031319;28;20197;-56
2021/01/21 04:18:03;;;;;;;3.10;1.15;;;7.00;99.90;;;;;;5030529;28;20200;-56
2021/01/21 04:20:45;;;;;;;1.90;1.45;;;7.00;99.90;;;;;;5013973;28;20212;-51
2021/01/21 04:23:13;;;;;;;1.40;0.80;;;7.10;99.90;;;;;;5014025;28;20190;-49
2021/01/21 04:25:41;;;;;;;2.45;0.80;;;7.10;99.90;;;;;;5030528;28;20270;-52
2021/01/21 04:28:09;;;;;;;6.28;1.10;;;7.10;99.90;;;;;;5029954;28;20261;-56
2021/01/21 04:30:40;;;;;;;1.10;0.73;;;7.10;99.90;;;;;;5030049;28;20763;-58
2021/01/21 04:33:07;;;;;;;1.35;0.85;;;7.10;99.90;;;;;;5031377;28;20591;-58
2021/01/21 04:35:35;;;;;;;1.73;1.13;;;7.20;99.90;;;;;;5013284;28;20717;-57
2021/01/21 04:38:03;;;;;;;2.05;1.38;;;7.20;99.90;;;;;;5030307;28;20189;-55
2021/01/21 04:40:48;;;;;;;1.67;0.93;;;7.30;99.90;;;;;;5030068;28;20228;-52
2021/01/21 04:43:43;;;;;;;2.22;0.80;;;7.30;99.90;;;;;;5031071;28;20251;-55
2021/01/21 04:46:19;;;;;;;1.15;0.77;;;7.30;99.90;;;;;;5013545;28;20561;-56
2021/01/21 04:48:51;;;;;;;1.17;1.08;;;7.20;99.90;;;;;;5030985;28;20181;-54
2021/01/21 04:51:21;;;;;;;1.63;1.05;;;7.20;99.90;;;;;;5012970;28;20592;-51
2021/01/21 04:54:02;;;;;;;6.30;1.73;;;7.10;99.90;;;;;;5013572;28;20255;-55
2021/01/21 04:56:53;;;;;;;2.72;1.75;;;7.10;99.90;;;;;;5014019;28;20189;-55
2021/01/21 04:59:25;;;;;;;1.42;0.98;;;7.00;99.90;;;;;;5031606;28;20807;-54
2021/01/21 05:01:53;;;;;;;2.78;1.00;;;7.00;99.90;;;;;;5013448;28;20220;-53
2021/01/21 05:04:21;;;;;;;1.00;0.60;;;7.00;99.90;;;;;;5029854;28;20197;-55
2021/01/21 05:07:16;;;;;;;1.40;1.13;;;7.00;99.90;;;;;;5013395;28;20216;-58
2021/01/21 05:09:44;;;;;;;1.17;0.80;;;6.90;99.90;;;;;;5030015;28;20208;-55
2021/01/21 05:12:17;;;;;;;1.80;1.17;;;7.00;99.90;;;;;;5013329;28;20301;-51
2021/01/21 05:14:54;;;;;;;2.47;0.90;;;6.90;99.90;;;;;;5015775;28;20275;-52
2021/01/21 05:17:42;;;;;;;1.50;1.27;;;7.00;99.90;;;;;;5035564;28;20694;-54
2021/01/21 05:20:28;;;;;;;1.20;0.90;;;6.90;99.90;;;;;;5034938;28;20223;-55
2021/01/21 05:23:14;;;;;;;2.25;1.00;;;7.00;99.90;;;;;;5035412;28;20676;-52
2021/01/21 05:26:01;;;;;;;1.85;0.90;;;7.00;99.90;;;;;;5033798;28;20186;-57
2021/01/21 05:28:51;;;;;;;2.35;1.30;;;6.90;99.90;;;;;;5017020;28;20280;-56
2021/01/21 05:31:33;;;;;;;3.35;1.38;;;6.90;99.90;;;;;;5033515;28;20217;-58
2021/01/21 05:34:02;;;;;;;4.03;0.93;;;6.90;99.90;;;;;;5017295;28;20904;-55
2021/01/21 05:36:48;;;;;;;1.20;1.00;;;6.80;99.90;;;;;;5033734;28;20224;-57
2021/01/21 05:39:20;;;;;;;3.20;1.38;;;6.80;99.90;;;;;;5017181;28;20219;-56
2021/01/21 05:42:07;;;;;;;2.72;1.70;;;6.80;99.90;;;;;;5035440;28;20301;-57
2021/01/21 05:44:41;;;;;;;2.20;1.27;;;6.90;99.90;;;;;;5033255;28;20201;-53
2021/01/21 05:47:26;;;;;;;1.10;0.98;;;6.90;99.90;;;;;;5033572;28;20758;-51
2021/01/21 05:49:53;;;;;;;2.22;1.58;;;6.80;99.90;;;;;;5034821;28;20197;-56
2021/01/21 05:52:24;;;;;;;3.17;2.05;;;6.80;99.90;;;;;;5032957;28;20289;-55
2021/01/21 05:54:52;;;;;;;1.70;1.50;;;6.90;99.90;;;;;;5016937;28;20581;-56
2021/01/21 05:57:36;;;;;;;2.70;1.38;;;6.80;99.90;;;;;;5016494;28;20193;-57
2021/01/21 06:00:06;;;;;;;1.33;1.23;;;6.80;99.90;;;;;;5016380;28;20323;-57
2021/01/21 06:02:50;;;;;;;2.35;1.75;;;6.80;99.90;;;;;;5032922;28;20731;-59
2021/01/21 06:05:50;;;;;;;2.05;1.15;;;6.90;99.90;;;;;;5023222;28;20701;-54
2021/01/21 06:08:21;;;;;;;2.28;1.75;;;6.90;99.90;;;;;;5034213;28;20653;-54
2021/01/21 06:10:50;;;;;;;2.28;1.70;;;6.90;99.90;;;;;;5033495;28;20232;-57
2021/01/21 06:13:18;;;;;;;5.32;1.83;;;7.00;99.90;;;;;;5033898;28;20208;-58
2021/01/21 06:15:48;;;;;;;3.83;2.10;;;7.00;99.90;;;;;;5031614;28;20220;-54
2021/01/21 06:18:15;;;;;;;2.63;1.80;;;7.00;99.90;;;;;;5037830;28;20197;-54
2021/01/21 06:20:56;;;;;;;2.08;1.58;;;7.00;99.90;;;;;;5031591;28;20235;-57
2021/01/21 06:23:46;;;;;;;2.75;1.67;;;7.00;99.90;;;;;;5031889;28;20274;-51
2021/01/21 06:26:38;;;;;;;2.60;2.13;;;7.00;99.90;;;;;;5030740;28;20197;-53
2021/01/21 06:29:06;;;;;;;2.00;1.17;;;7.10;99.90;;;;;;5034238;28;20534;-52
2021/01/21 06:31:37;;;;;;;2.55;2.25;;;7.10;99.90;;;;;;5034003;28;20213;-56
2021/01/21 06:34:08;;;;;;;3.97;2.50;;;7.10;99.90;;;;;;5034287;28;20181;-54
2021/01/21 06:36:41;;;;;;;2.55;1.60;;;7.20;99.90;;;;;;5034063;28;20217;-50
2021/01/21 06:39:13;;;;;;;4.35;1.60;;;7.20;99.90;;;;;;5033845;28;20177;-50
2021/01/21 06:41:44;;;;;;;2.20;1.30;;;7.20;99.90;;;;;;5033100;28;20251;-59
2021/01/21 06:44:15;;;;;;;4.82;2.53;;;7.30;99.90;;;;;;5033437;28;20186;-52
2021/01/21 06:46:45;;;;;;;3.28;1.65;;;7.30;99.90;;;;;;5032982;28;20197;-54
2021/01/21 06:49:14;;;;;;;2.97;2.53;;;7.40;99.90;;;;;;5033029;28;20188;-58
2021/01/21 06:51:45;;;;;;;4.88;1.90;;;7.40;99.90;;;;;;5032832;28;20271;-53
2021/01/21 06:54:13;;;;;;;3.83;1.63;;;7.50;99.90;;;;;;5032640;28;20363;-57
2021/01/21 06:56:41;;;;;;;2.10;1.60;;;7.50;99.90;;;;;;5033507;28;20201;-55
2021/01/21 06:59:08;;;;;;;3.50;1.90;;;7.60;99.90;;;;;;5033521;28;20268;-53
2021/01/21 07:01:46;;;;;;;2.10;1.45;;;7.60;99.90;;;;;;5033284;28;20720;-59
2021/01/21 07:04:21;;;;;;;2.58;1.48;;;7.70;99.90;;;;;;5032873;28;20646;-59
2021/01/21 07:07:03;;;;;;;5.07;1.70;;;7.70;99.90;;;;;;5032420;28;20247;-57
2021/01/21 07:09:36;;;;;;;6.68;2.55;;;7.80;99.90;;;;;;5032589;28;20201;-56
2021/01/21 07:12:04;;;;;;;3.58;1.25;;;7.80;99.90;;;;;;5032682;28;20964;-53
2021/01/21 07:14:32;;;;;;;4.00;1.48;;;7.80;99.90;;;;;;5015498;28;20189;-57
2021/01/21 07:17:01;;;;;;;1.80;1.25;;;7.90;99.90;;;;;;5033047;28;20220;-57
2021/01/21 07:19:33;;;;;;;3.20;1.50;;;7.90;99.90;;;;;;5032990;28;20185;-52
2021/01/21 07:22:11;;;;;;;1.92;1.55;;;7.90;99.90;;;;;;5031651;28;20205;-55
2021/01/21 07:24:49;;;;;;;5.30;1.75;;;8.00;99.90;;;;;;5032391;28;20265;-55
2021/01/21 07:27:19;;;;;;;1.95;1.40;;;8.00;99.90;;;;;;5032496;28;20201;-56
2021/01/21 07:29:46;;;;;;;1.27;1.05;;;8.10;99.90;;;;;;5032785;28;20615;-59
2021/01/21 07:32:14;;;;;;;1.48;1.38;;;8.00;99.90;;;;;;5034480;28;20631;-55
2021/01/21 07:34:46;;;;;;;1.75;1.27;;;8.10;99.90;;;;;;5034341;28;20224;-58
2021/01/21 07:37:28;;;;;;;2.95;1.10;;;8.10;99.90;;;;;;5032762;28;20195;-56
2021/01/21 07:40:04;;;;;;;1.95;1.50;;;8.20;99.90;;;;;;5032327;28;20213;-54
2021/01/21 07:42:51;;;;;;;1.60;1.10;;;8.30;99.90;;;;;;5031592;28;20200;-56
2021/01/21 07:45:29;;;;;;;2.33;1.25;;;8.30;99.90;;;;;;5032260;28;20525;-60
2021/01/21 07:48:07;;;;;;;2.15;1.95;;;8.30;99.90;;;;;;5032339;28;20861;-56
2021/01/21 07:50:36;;;;;;;1.98;1.08;;;8.30;99.90;;;;;;5032516;28;20578;-54
2021/01/21 07:53:06;;;;;;;1.67;1.00;;;8.40;99.90;;;;;;5032402;28;20188;-55
2021/01/21 07:55:34;;;;;;;1.25;1.13;;;8.40;99.90;;;;;;5031757;28;20225;-57
2021/01/21 07:58:15;;;;;;;1.55;1.35;;;8.40;99.90;;;;;;5032415;28;20653;-55
2021/01/21 08:00:43;;;;;;;3.28;1.65;;;8.50;99.90;;;;;;5032420;28;20201;-50
2021/01/21 08:03:11;;;;;;;7.63;1.38;;;8.50;99.90;;;;;;5032352;28;20185;-49
2021/01/21 08:05:38;;;;;;;4.88;1.75;;;8.60;99.90;;;;;;5032013;28;20185;-55
2021/01/21 08:08:06;;;;;;;2.60;1.60;;;8.70;99.90;;;;;;5031435;28;20186;-54
2021/01/21 08:10:35;;;;;;;1.88;1.08;;;8.70;99.90;;;;;;5031686;28;20689;-57
2021/01/21 08:13:04;;;;;;;1.98;1.20;;;8.70;99.90;;;;;;5031771;28;20264;-53
2021/01/21 08:15:32;;;;;;;2.15;1.20;;;8.70;99.90;;;;;;5031661;28;20193;-59
2021/01/21 08:18:00;;;;;;;3.92;1.50;;;8.70;99.90;;;;;;5031474;28;20186;-53
2021/01/21 08:20:30;;;;;;;1.52;0.93;;;8.80;99.90;;;;;;5031136;28;20260;-59
2021/01/21 08:22:59;;;;;;;3.83;1.35;;;8.90;99.90;;;;;;5031931;28;20696;-56
2021/01/21 08:25:28;;;;;;;1.30;1.10;;;9.00;99.90;;;;;;5032007;28;20193;-53
2021/01/21 08:27:56;;;;;;;1.85;1.10;;;9.10;99.90;;;;;;5031339;28;20273;-51
2021/01/21 08:30:25;;;;;;;2.50;1.33;;;9.20;99.90;;;;;;5031793;28;20212;-54
2021/01/21 08:32:57;;;;;;;1.13;0.85;;;9.30;99.90;;;;;;5013317;28;20221;-55
2021/01/21 08:35:28;;;;;;;2.50;1.35;;;9.30;99.90;;;;;;5029801;28;20538;-52
2021/01/21 08:37:58;;;;;;;3.20;1.35;;;9.40;99.90;;;;;;5031807;28;20818;-58
2021/01/21 08:40:27;;;;;;;2.10;1.35;;;9.40;99.90;;;;;;5031383;28;20209;-55
2021/01/21 08:42:55;;;;;;;1.63;1.13;;;9.50;99.90;;;;;;5038964;22;20716;-55
2021/01/21 08:45:29;;;;;;;4.22;1.73;;;9.50;99.90;;;;;;5013235;28;20251;-59
2021/01/21 08:47:56;;;;;;;2.63;1.30;;;9.50;99.90;;;;;;5030451;28;20213;-50
2021/01/21 08:50:33;;;;;;;2.58;1.40;;;9.40;99.90;;;;;;5030536;28;20232;-53
2021/01/21 08:53:05;;;;;;;4.32;1.10;;;9.40;99.90;;;;;;5030118;28;20203;-57
2021/01/21 08:55:43;;;;;;;1.42;1.10;;;9.40;99.90;;;;;;5031242;28;20201;-55
2021/01/21 08:58:11;;;;;;;1.10;1.00;;;9.40;99.90;;;;;;5030277;28;20723;-56
2021/01/21 09:00:40;;;;;;;3.97;1.63;;;9.40;99.90;;;;;;5030377;28;20209;-58
2021/01/21 09:03:07;;;;;;;1.00;0.90;;;9.40;99.90;;;;;;5030743;28;20315;-56
2021/01/21 09:05:35;;;;;;;2.40;1.30;;;9.50;99.90;;;;;;5030677;28;20627;-57
2021/01/21 09:08:05;;;;;;;2.70;1.58;;;9.50;99.90;;;;;;5030782;28;20209;-54
2021/01/21 09:10:41;;;;;;;1.70;1.13;;;9.50;99.90;;;;;;5011294;28;20213;-53
2021/01/21 09:13:09;;;;;;;1.85;1.08;;;9.60;99.90;;;;;;5012794;28;20174;-51
2021/01/21 09:15:55;;;;;;;2.20;1.20;;;9.70;99.90;;;;;;5019484;28;20205;-56
2021/01/21 09:18:23;;;;;;;2.47;1.15;;;9.90;99.90;;;;;;5010996;28;20650;-52
2021/01/21 09:21:10;;;;;;;1.55;1.45;;;10.00;99.90;;;;;;5010669;28;20248;-56
2021/01/21 09:23:38;;;;;;;4.45;2.05;;;10.10;99.90;;;;;;5010838;28;20178;-53
2021/01/21 09:26:12;;;;;;;2.22;1.52;;;10.20;99.90;;;;;;5010966;28;20654;-58
2021/01/21 09:28:53;;;;;;;3.88;1.60;;;10.20;99.90;;;;;;5011452;28;20184;-59
2021/01/21 09:31:22;;;;;;;2.15;1.48;;;10.20;99.90;;;;;;5012091;28;20202;-53
2021/01/21 09:33:51;;;;;;;3.17;1.95;;;10.30;99.90;;;;;;5010723;28;20194;-55
2021/01/21 09:36:18;;;;;;;2.20;1.70;;;10.30;99.90;;;;;;5010479;28;20190;-55
2021/01/21 09:38:46;;;;;;;3.40;1.40;;;10.40;99.90;;;;;;5011083;28;20193;-59
2021/01/21 09:41:14;;;;;;;2.78;1.60;;;10.50;99.90;;;;;;5010409;28;20465;-56
2021/01/21 09:43:41;;;;;;;3.20;1.38;;;10.50;99.90;;;;;;5008268;28;20195;-59
2021/01/21 09:46:20;;;;;;;1.40;1.30;;;10.50;99.90;;;;;;5035875;22;20221;-64
2021/01/21 09:48:47;;;;;;;1.73;0.80;;;10.60;99.90;;;;;;5051837;28;20179;-59
2021/01/21 09:51:15;;;;;;;2.08;1.50;;;10.70;99.90;;;;;;5050986;28;20441;-61
2021/01/21 09:53:42;;;;;;;1.05;0.85;;;10.70;99.90;;;;;;5051701;28;20249;-57
2021/01/21 09:56:10;;;;;;;1.98;1.40;;;10.70;99.90;;;;;;5051665;28;20664;-62
2021/01/21 09:58:38;;;;;;;4.10;1.10;;;10.90;99.90;;;;;;5050993;28;20195;-61
2021/01/21 10:01:05;;;;;;;1.50;1.10;;;11.00;99.90;;;;;;5054159;28;20451;-60
2021/01/21 10:03:47;;;;;;;2.70;0.80;;;11.30;99.90;;;;;;5054797;28;20488;-62
2021/01/21 10:06:14;;;;;;;2.50;1.00;;;11.40;99.90;;;;;;5055823;28;20404;-59
2021/01/21 10:08:41;;;;;;;2.53;1.20;;;11.50;99.90;;;;;;5055723;28;20402;-60
2021/01/21 10:11:09;;;;;;;1.30;1.10;;;11.50;99.90;;;;;;5054702;28;20670;-61
2021/01/21 10:13:37;;;;;;;2.30;1.20;;;11.50;99.90;;;;;;5055280;28;20415;-63
2021/01/21 10:16:05;;;;;;;2.73;1.50;;;11.50;99.90;;;;;;5055573;28;20433;-60
2021/01/21 10:18:32;;;;;;;2.20;2.00;;;11.40;99.90;;;;;;5055164;28;20426;-61
2021/01/21 10:21:00;;;;;;;4.70;1.33;;;11.30;99.90;;;;;;5054795;28;20477;-64
2021/01/21 10:23:27;;;;;;;4.27;1.47;;;11.20;99.90;;;;;;5055475;28;20419;-56
2021/01/21 10:25:54;;;;;;;2.40;1.00;;;11.30;99.90;;;;;;5055819;28;20470;-60
2021/01/21 10:28:22;;;;;;;1.70;1.30;;;11.30;99.90;;;;;;5055751;28;20423;-59
2021/01/21 10:30:50;;;;;;;2.73;1.30;;;11.40;99.90;;;;;;5055629;28;20467;-56
2021/01/21 10:33:17;;;;;;;2.33;0.87;;;11.50;99.90;;;;;;5054949;28;20449;-58
2021/01/21 10:35:44;;;;;;;1.80;1.50;;;11.60;99.90;;;;;;5055163;28;20454;-62
2021/01/21 10:38:12;;;;;;;2.23;1.20;;;11.60;99.90;;;;;;5054376;28;20419;-61
2021/01/21 10:40:40;;;;;;;1.67;1.13;;;11.70;99.90;;;;;;5053578;28;20505;-62
2021/01/21 10:43:07;;;;;;;3.07;1.40;;;11.80;99.90;;;;;;5053307;28;20455;-59
2021/01/21 10:45:35;;;;;;;2.50;1.00;;;11.90;99.90;;;;;;5054029;28;20420;-59
2021/01/21 10:48:02;;;;;;;1.20;0.93;;;12.00;99.90;;;;;;5053018;28;20405;-57
2021/01/21 10:50:29;;;;;;;6.17;2.90;;;12.10;99.90;;;;;;5052980;28;20505;-60
2021/01/21 10:52:56;;;;;;;2.43;1.33;;;12.20;99.90;;;;;;5034930;28;20468;-61
2021/01/21 10:55:23;;;;;;;2.10;1.00;;;12.40;99.90;;;;;;5053151;28;20490;-59
2021/01/21 10:57:51;;;;;;;1.97;1.37;;;12.50;99.90;;;;;;5053083;28;20983;-60
2021/01/21 11:00:19;;;;;;;2.57;1.93;;;12.50;99.90;;;;;;5052611;28;20445;-60
2021/01/21 11:02:46;;;;;;;2.03;1.30;;;12.50;99.90;;;;;;5052822;28;20905;-59
2021/01/21 11:05:15;;;;;;;1.27;1.10;;;12.60;99.90;;;;;;5053169;28;20420;-58
2021/01/21 11:07:42;;;;;;;2.20;1.00;;;12.60;99.90;;;;;;5053000;28;20818;-57
2021/01/21 11:10:10;;;;;;;1.87;1.40;;;12.70;99.90;;;;;;5033508;28;20483;-60
2021/01/21 11:12:48;;;;;;;2.03;0.80;;;12.90;99.90;;;;;;5052370;28;20438;-57
2021/01/21 11:15:16;;;;;;;2.70;1.50;;;13.20;99.90;;;;;;5023873;28;20433;-58
2021/01/21 11:17:44;;;;;;;3.93;1.40;;;13.50;99.90;;;;;;5013574;28;20495;-61
2021/01/21 11:20:13;;;;;;;1.33;1.13;;;13.70;99.90;;;;;;5013414;28;20448;-58
2021/01/21 11:22:40;;;;;;;1.70;1.23;;;13.90;99.90;;;;;;5012534;28;20468;-57
2021/01/21 11:25:08;;;;;;;1.63;1.20;;;13.90;99.90;;;;;;5012292;28;20432;-58
2021/01/21 11:27:55;;;;;;;1.03;0.70;;;13.90;99.90;;;;;;5012741;28;20422;-60
2021/01/21 11:30:23;;;;;;;1.43;1.00;;;13.90;99.90;;;;;;5012913;28;20811;-60
2021/01/21 11:32:51;;;;;;;1.37;1.27;;;13.70;99.90;;;;;;5012953;28;20415;-63
2021/01/21 11:35:19;;;;;;;1.33;0.80;;;13.50;99.90;;;;;;5013445;28;20400;-60
2021/01/21 11:37:46;;;;;;;1.57;1.27;;;13.40;99.90;;;;;;5013133;28;20439;-59
2021/01/21 11:40:14;;;;;;;1.20;0.97;;;13.30;99.90;;;;;;5012575;28;21014;-60
2021/01/21 11:42:41;;;;;;;1.10;0.73;;;13.20;99.90;;;;;;5014143;28;20417;-60
2021/01/21 11:45:09;;;;;;;1.77;0.90;;;13.10;99.90;;;;;;5014507;28;20421;-60
2021/01/21 11:47:39;;;;;;;1.77;1.03;;;13.10;99.90;;;;;;5014248;28;20440;-61
2021/01/21 11:50:10;;;;;;;1.67;1.17;;;13.10;99.90;;;;;;5028556;28;20444;-62
2021/01/21 11:52:38;;;;;;;1.90;1.30;;;13.00;99.90;;;;;;5033125;28;20486;-59
2021/01/21 11:55:07;;;;;;;1.50;1.13;;;13.10;99.90;;;;;;5034045;28;20755;-57
2021/01/21 11:57:34;;;;;;;1.47;1.37;;;13.00;99.90;;;;;;5034011;28;20566;-63
2021/01/21 12:00:02;;;;;;;1.30;0.70;;;13.00;99.90;;;;;;5032292;28;20446;-61
2021/01/21 12:02:31;;;;;;;4.20;0.80;;;13.00;99.90;;;;;;5031988;28;20809;-58
2021/01/21 12:04:58;;;;;;;1.63;1.20;;;13.10;99.90;;;;;;5032057;28;20429;-60
2021/01/21 12:07:26;;;;;;;1.23;0.90;;;13.10;99.90;;;;;;5032704;28;20726;-59
2021/01/21 12:09:54;;;;;;;1.30;1.20;;;13.00;99.90;;;;;;5014876;28;20448;-62
2021/01/21 12:12:22;;;;;;;1.50;0.90;;;13.00;99.90;;;;;;5032167;28;20421;-58
2021/01/21 12:14:49;;;;;;;3.13;1.23;;;12.90;99.90;;;;;;5031963;28;20402;-60
2021/01/21 12:17:17;;;;;;;5.63;2.70;;;12.90;99.90;;;;;;5031093;28;20460;-62
2021/01/21 12:19:45;;;;;;;6.47;1.93;;;12.90;99.90;;;;;;5023482;28;20417;-62
2021/01/21 12:22:12;;;;;;;6.40;1.00;;;12.90;99.90;;;;;;5016832;28;20450;-62
2021/01/21 12:24:39;;;;;;;3.60;1.53;;;12.80;99.90;;;;;;5029427;28;20403;-58
2021/01/21 12:27:07;;;;;;;3.70;1.63;;;12.90;99.90;;;;;;5030531;28;20399;-62
2021/01/21 12:29:35;;;;;;;3.40;1.60;;;12.80;99.90;;;;;;5031502;28;20423;-60
2021/01/21 12:32:02;;;;;;;1.57;1.37;;;12.80;99.90;;;;;;5030514;28;20455;-60
2021/01/21 12:34:31;;;;;;;2.93;1.27;;;12.80;99.90;;;;;;5031686;28;20467;-60
2021/01/21 12:36:58;;;;;;;1.10;0.73;;;12.90;99.90;;;;;;5018090;28;20767;-60
2021/01/21 12:39:26;;;;;;;6.17;1.33;;;12.90;99.90;;;;;;5011570;28;20410;-60
2021/01/21 12:41:53;;;;;;;1.33;1.00;;;12.90;99.90;;;;;;5011474;28;20419;-61
2021/01/21 12:44:21;;;;;;;2.50;1.07;;;12.90;99.90;;;;;;5011718;28;20396;-60
2021/01/21 12:46:48;;;;;;;1.83;1.00;;;12.90;99.90;;;;;;5033361;28;20447;-61
2021/01/21 12:49:16;;;;;;;1.50;1.07;;;12.90;99.90;;;;;;5051183;28;20455;-59
2021/01/21 12:51:44;;;;;;;1.60;1.07;;;12.80;99.90;;;;;;5050811;28;20509;-61
2021/01/21 12:54:11;;;;;;;1.27;0.90;;;12.80;99.90;;;;;;5050315;28;20423;-62
2021/01/21 12:56:38;;;;;;;1.07;0.83;;;12.70;99.90;;;;;;5017153;28;20435;-64
2021/01/21 12:59:05;;;;;;;1.90;1.10;;;12.70;99.90;;;;;;5042939;28;20435;-62
2021/01/21 13:01:34;;;;;;;1.20;0.93;;;12.70;99.90;;;;;;5049713;28;20505;-61
2021/01/21 13:04:02;;;;;;;1.50;1.10;;;12.70;99.90;;;;;;5028360;28;20398;-62
2021/01/21 13:06:29;;;;;;;1.90;1.13;;;12.70;99.90;;;;;;5050385;28;20428;-62
2021/01/21 13:08:56;;;;;;;1.40;1.03;;;12.70;99.90;;;;;;5050057;28;20960;-63
2021/01/21 13:11:23;;;;;;;1.73;0.70;;;12.60;99.90;;;;;;5032083;28;20466;-59
2021/01/21 13:13:50;;;;;;;2.60;1.77;;;12.60;99.90;;;;;;5050432;28;20427;-64
2021/01/21 13:16:17;;;;;;;2.60;1.83;;;12.60;99.90;;;;;;5049753;28;20466;-57